Creston, IA

9:52 PM CDT on September 20, 2017 (GMT -0500)
Creston Municipal

Weather History for KCSQ - November, 2013

Change the Weather History Date:

Monday, November 11, 2013

  Actual Average Record
Temperature  
Mean Temperature 32 °F -  
Max Temperature 50 °F 46 °F 73 °F (1964)
Min Temperature 15 °F 29 °F -2 °F (1986)
Degree Days  
Heating Degree Days 32    
Moisture  
Dew Point 26 °F    
Average Humidity 77    
Maximum Humidity 93    
Minimum Humidity 54    
Precipitation  
Precipitation 0.00 in - - ()
Sea Level Pressure  
Sea Level Pressure 30.35 in    
Wind  
Wind Speed 14 mph (NNW)    
Max Wind Speed 25 mph    
Max Gust Speed 34 mph    
Visibility 10 miles    
Events Rain    
Averages and records for this station are not official NWS values.
T = Trace of Precipitation, MM = Missing Value Source: NWS Daily Summary

Daily Weather History Graph

Daily Weather History Graph

Search for Another Location

Airport or City:

Trip Planner

Search our weather history database for the weather conditions in past years. The results will help you decide how hot, cold, wet, or windy it might be!

Date:

Astronomy

Nov. 11, 2013 Rise Set
Actual Time 7:00 AM CST 5:01 PM CST
Civil Twilight 6:31 AM CST 5:31 PM CST
Nautical Twilight 5:58 AM CST 6:04 PM CST
Astronomical Twilight 5:25 AM CST 6:36 PM CST
Moon 1:45 PM CST (11/11) 12:43 AM CST (11/11)
Length of Visible Light 10h 59m
Length of Day
10h 01m
Waxing Gibbous, 66% of the Moon is Illuminated
Nov 11
Waxing Gibbous
Nov 17
Full
Nov 25
Last Quarter
Dec 2
New
Dec 9
First Quarter

Hourly Weather History & Observations

Time (CST) Temp. Windchill Dew Point Humidity Pressure Visibility Wind Dir Wind Speed Gust Speed Precip Events Conditions
12:15 AM 50.0 °F - 33.8 °F 54% 30.16 in 10.0 mi SW 13.8 mph - N/A   Overcast
12:55 AM 48.2 °F - 33.8 °F 58% 30.15 in 10.0 mi SSW 13.8 mph - N/A   Partly Cloudy
1:15 AM 48.2 °F - 33.8 °F 58% 30.14 in 10.0 mi SW 11.5 mph - N/A   Clear
1:55 AM 46.4 °F 41.1 °F 33.8 °F 62% 30.14 in 10.0 mi SW 11.5 mph - N/A   Clear
2:15 AM 44.6 °F 38.8 °F 33.8 °F 66% 30.13 in 10.0 mi SW 11.5 mph - N/A   Clear
2:35 AM 44.6 °F 39.2 °F 35.6 °F 71% 30.12 in 10.0 mi SW 10.4 mph - N/A   Clear
2:55 AM 42.8 °F 38.6 °F 33.8 °F 70% 30.13 in 10.0 mi SW 6.9 mph - N/A   Scattered Clouds
3:15 AM 42.8 °F 38.0 °F 35.6 °F 76% 30.12 in 10.0 mi SW 8.1 mph - N/A   Scattered Clouds
3:35 AM 42.8 °F 37.5 °F 35.6 °F 76% 30.12 in - SW 9.2 mph - N/A   Partly Cloudy
3:55 AM 42.8 °F 37.5 °F 35.6 °F 76% 30.11 in 10.0 mi SW 9.2 mph - N/A   Partly Cloudy
4:15 AM 42.8 °F 38.6 °F 35.6 °F 76% 30.12 in 10.0 mi SW 6.9 mph - N/A   Clear
4:35 AM 41.0 °F 37.1 °F 35.6 °F 81% 30.11 in 10.0 mi SW 5.8 mph - N/A   Clear
4:55 AM 41.0 °F 36.4 °F 35.6 °F 81% 30.11 in 10.0 mi SW 6.9 mph - N/A   Clear
5:15 AM 41.0 °F 37.1 °F 37.4 °F 87% 30.11 in 10.0 mi SW 5.8 mph - N/A   Clear
5:35 AM 41.0 °F 37.1 °F 37.4 °F 87% 30.12 in 10.0 mi SW 5.8 mph - N/A   Clear
5:55 AM 41.0 °F 38.0 °F 37.4 °F 87% 30.12 in 10.0 mi WSW 4.6 mph - N/A   Scattered Clouds
6:15 AM 41.0 °F 38.0 °F 39.2 °F 93% 30.13 in 10.0 mi NW 4.6 mph - N/A   Overcast
6:35 AM 41.0 °F 38.0 °F 39.2 °F 93% 30.13 in 10.0 mi West 4.6 mph - N/A   Overcast
6:55 AM 42.8 °F 41.1 °F 39.2 °F 87% 30.14 in 10.0 mi West 3.5 mph - N/A   Overcast
7:15 AM 42.8 °F 40.1 °F 39.2 °F 87% 30.15 in 10.0 mi WNW 4.6 mph - N/A   Overcast
7:35 AM 42.8 °F 36.6 °F 41.0 °F 93% 30.17 in 10.0 mi North 11.5 mph 18.4 mph N/A   Overcast
7:55 AM 41.0 °F 32.2 °F 33.8 °F 76% 30.17 in 10.0 mi NNE 18.4 mph - N/A   Overcast
8:15 AM 41.0 °F 33.1 °F 33.8 °F 76% 30.20 in 10.0 mi North 15.0 mph - N/A   Overcast
8:35 AM 39.2 °F 30.8 °F 32.0 °F 75% 30.22 in 10.0 mi NNE 15.0 mph 24.2 mph N/A   Overcast
8:55 AM 39.2 °F 29.6 °F 32.0 °F 75% 30.23 in 10.0 mi NNE 19.6 mph 31.1 mph N/A   Overcast
9:15 AM 37.4 °F 27.5 °F 32.0 °F 81% 30.24 in 10.0 mi North 18.4 mph 33.4 mph N/A   Overcast
9:35 AM 37.4 °F 26.1 °F 32.0 °F 81% 30.24 in 10.0 mi NNE 24.2 mph 31.1 mph N/A   Overcast
9:55 AM 37.4 °F 27.2 °F 32.0 °F 81% 30.25 in 10.0 mi NNE 19.6 mph 29.9 mph N/A   Overcast
10:15 AM 37.4 °F 26.6 °F 32.0 °F 81% 30.27 in 10.0 mi NNE 21.9 mph 29.9 mph N/A   Overcast
10:35 AM 37.4 °F 26.9 °F 32.0 °F 81% 30.28 in 10.0 mi NNE 20.7 mph 28.8 mph N/A   Overcast
10:55 AM 37.4 °F 27.8 °F 32.0 °F 81% 30.29 in 10.0 mi NNE 17.3 mph 27.6 mph N/A   Overcast
11:15 AM 35.6 °F 25.5 °F 30.2 °F 81% 30.30 in 10.0 mi NNE 17.3 mph 26.5 mph N/A   Overcast
11:35 AM 35.6 °F 25.5 °F 30.2 °F 81% 30.30 in 10.0 mi NNE 17.3 mph 27.6 mph N/A   Overcast
11:55 AM 35.6 °F 24.8 °F 28.4 °F 75% 30.32 in 10.0 mi North 19.6 mph 27.6 mph N/A   Overcast
12:15 PM 33.8 °F 22.8 °F 26.6 °F 75% 30.33 in 10.0 mi NNE 18.4 mph 34.5 mph N/A   Overcast
12:35 PM 32.0 °F 19.2 °F 24.8 °F 75% 30.33 in 10.0 mi North 23.0 mph 32.2 mph N/A   Overcast
12:55 PM 32.0 °F 20.8 °F 24.8 °F 75% 30.33 in 10.0 mi North 17.3 mph 28.8 mph N/A   Overcast
1:15 PM 32.0 °F 18.9 °F 21.2 °F 64% 30.34 in 10.0 mi North 24.2 mph 32.2 mph N/A   Overcast
1:35 PM 30.2 °F 16.2 °F 21.2 °F 69% 30.35 in 10.0 mi North 25.3 mph - N/A   Overcast
1:55 PM 30.2 °F 16.8 °F 23.0 °F 75% 30.37 in 10.0 mi North 23.0 mph 31.1 mph N/A   Overcast
2:15 PM 28.4 °F 15.8 °F 23.0 °F 80% 30.38 in 10.0 mi North 18.4 mph 25.3 mph N/A   Light Freezing Rain
2:35 PM 28.4 °F 16.2 °F 23.0 °F 80% 30.39 in 10.0 mi North 17.3 mph 25.3 mph N/A   Overcast
2:55 PM 28.4 °F 15.1 °F 21.2 °F 74% 30.40 in 10.0 mi North 20.7 mph 29.9 mph N/A   Overcast
3:15 PM 26.6 °F 13.8 °F 21.2 °F 80% 30.42 in 5.0 mi North 17.3 mph 27.6 mph N/A Rain Light Freezing Rain
3:35 PM 24.8 °F 10.3 °F 21.2 °F 86% 30.43 in 2.0 mi North 20.7 mph 27.6 mph N/A   Overcast
3:55 PM 24.8 °F 12.4 °F 21.2 °F 86% 30.44 in 1.5 mi North 15.0 mph 24.2 mph N/A   Mostly Cloudy
4:15 PM 24.8 °F 11.9 °F 21.2 °F 86% 30.44 in 2.0 mi North 16.1 mph 21.9 mph N/A   Mostly Cloudy
4:35 PM 24.8 °F 11.9 °F 21.2 °F 86% 30.46 in 8.0 mi North 16.1 mph - N/A Rain Light Freezing Rain
4:55 PM 24.8 °F 11.5 °F 19.4 °F 80% 30.47 in 10.0 mi North 17.3 mph 24.2 mph N/A Rain Light Freezing Rain
5:15 PM 24.8 °F 12.4 °F 15.8 °F 69% 30.49 in 10.0 mi North 15.0 mph 28.8 mph N/A   Overcast
5:35 PM 24.8 °F 11.5 °F 15.8 °F 69% 30.49 in 10.0 mi North 17.3 mph 24.2 mph N/A   Overcast
5:55 PM 24.8 °F 11.9 °F 15.8 °F 69% 30.51 in 10.0 mi North 16.1 mph 24.2 mph N/A   Overcast
6:15 PM 23.0 °F 9.2 °F 15.8 °F 74% 30.52 in 10.0 mi North 17.3 mph 27.6 mph N/A   Mostly Cloudy
6:35 PM 23.0 °F 9.2 °F 15.8 °F 74% 30.53 in 10.0 mi North 17.3 mph 26.5 mph N/A   Mostly Cloudy
6:55 PM 23.0 °F 7.6 °F 15.8 °F 74% 30.54 in 10.0 mi North 21.9 mph 27.6 mph N/A   Mostly Cloudy
7:15 PM 23.0 °F 9.2 °F 15.8 °F 74% 30.56 in 10.0 mi North 17.3 mph - N/A   Scattered Clouds
7:35 PM 23.0 °F 8.3 °F 14.0 °F 68% 30.57 in 10.0 mi North 19.6 mph 26.5 mph N/A   Mostly Cloudy
7:55 PM 23.0 °F 10.1 °F 14.0 °F 68% 30.58 in 10.0 mi North 15.0 mph 27.6 mph N/A   Mostly Cloudy
8:15 PM 21.2 °F 6.0 °F 14.0 °F 74% 30.58 in 10.0 mi North 19.6 mph - N/A   Mostly Cloudy
8:35 PM 21.2 °F 7.3 °F 14.0 °F 74% 30.59 in 10.0 mi North 16.1 mph 23.0 mph N/A   Mostly Cloudy
8:55 PM 21.2 °F 6.0 °F 14.0 °F 74% 30.60 in 10.0 mi North 19.6 mph - N/A   Scattered Clouds
9:15 PM 21.2 °F 7.3 °F 14.0 °F 74% 30.62 in 10.0 mi North 16.1 mph 23.0 mph N/A   Mostly Cloudy
9:35 PM 19.4 °F 4.5 °F 14.0 °F 80% 30.63 in 10.0 mi North 17.3 mph 25.3 mph N/A   Scattered Clouds
9:55 PM 19.4 °F 6.0 °F 12.2 °F 74% 30.64 in 10.0 mi North 13.8 mph 21.9 mph N/A   Partly Cloudy
10:15 PM 17.6 °F 5.0 °F 12.2 °F 79% 30.65 in 10.0 mi North 11.5 mph 18.4 mph N/A   Clear
10:35 PM 17.6 °F 3.7 °F 12.2 °F 79% 30.66 in 10.0 mi North 13.8 mph - N/A   Clear
10:55 PM 17.6 °F 3.7 °F 10.4 °F 73% 30.67 in 10.0 mi North 13.8 mph 19.6 mph N/A   Clear
11:15 PM 17.6 °F 3.2 °F 10.4 °F 73% 30.68 in 10.0 mi North 15.0 mph - N/A   Clear
11:35 PM 15.8 °F 2.7 °F 10.4 °F 79% 30.69 in 10.0 mi North 11.5 mph 18.4 mph N/A   Clear
11:55 PM 15.8 °F 0.9 °F 10.4 °F 79% 30.69 in 10.0 mi North 15.0 mph - N/A   Clear